DAOO/ORN METAR and TAF weather

Enter ICAO airport designator
Station Type Date Time Source
DAOO METAR 2022/09/26 09:00 UTC NOAA

DAOO 260900Z 27005KT 9999 FEW023 BKN030 22/16 Q1013


Station Type Date Time Source
DAOO Decoded METAR 2022/09/26 09:00 UTC NOAA

Oran / Es Senia, Algeria (DAOO) 35-38N 000-36W 90M
Sep 26, 2022 - 05:00 AM EDT / 2022.09.26 0900 UTC
Wind: from the W (270 degrees) at 6 MPH (5 KT):0
Visibility: greater than 7 mile(s):0
Sky conditions: mostly cloudy
Temperature: 71 F (22 C)
Dew Point: 60 F (16 C)
Relative Humidity: 68%
Pressure (altimeter): 29.91 in. Hg (1013 hPa)
ob: DAOO 260900Z 27005KT 9999 FEW023 BKN030 22/16 Q1013
cycle: 9

Station Type Date Time Source
DAOO TAF 2022/09/26 06:33 UTC NOAA

TAF DAOO 260500Z 2606/2706 VRB02KT 9999 SCT026
BECMG 2609/2612 24010KT 9999 SCT026 FEW030CB
BECMG 2613/2615 9999 SCT023 SCT026
TEMPO 2703/2706 21015G27KT

Example: see airport list